Time;durP1;ratioP1;P1;durP2;ratioP2;P2;SDS_P1;SDS_P2;PMS_P1;PMS_P2;Temp;Humidity;BMP_temperature;BMP_pressure;BME280_temperature;BME280_humidity;BME280_pressure;Samples;Min_cycle;Max_cycle;Signal;HPM_P1;HPM_P2
2024/03/09 00:01:25;;;;;;;;;;;;;;;5.37;71.09;96762.81;7400261;19;1034;-68
2024/03/09 00:03:56;;;;;;;;;;;;;;;5.37;71.36;96761.09;7400686;19;1022;-66
2024/03/09 00:06:24;;;;;;;;;;;;;;;5.37;71.43;96755.03;7400554;19;1034;-66
2024/03/09 00:08:53;;;;;;;;;;;;;;;5.37;71.56;96758.50;7400236;19;1893;-69
2024/03/09 00:11:21;;;;;;;;;;;;;;;5.37;71.87;96755.91;7397597;19;1278;-69
2024/03/09 00:13:49;;;;;;;;;;;;;;;5.34;72.00;96755.94;7399854;19;1195;-67
2024/03/09 00:16:19;;;;;;;;;;;;;;;5.27;71.95;96744.78;7400449;19;965;-72
2024/03/09 00:18:47;;;;;;;;;;;;;;;5.11;72.01;96746.72;7400376;19;1048;-72
2024/03/09 00:21:18;;;;;;;;;;;;;;;5.01;73.38;96735.63;7399751;19;1128;-67
2024/03/09 00:23:50;;;;;;;;;;;;;;;4.99;73.47;96739.94;7399706;19;1105;-70
2024/03/09 00:26:19;;;;;;;;;;;;;;;5.02;73.34;96737.31;7399964;19;1027;-71
2024/03/09 00:28:47;;;;;;;;;;;;;;;5.08;73.21;96733.78;7399494;19;1344;-69
2024/03/09 00:31:16;;;;;;;;;;;;;;;5.11;73.09;96733.75;7397332;19;1932;-69
2024/03/09 00:33:44;;;;;;;;;;;;;;;5.13;73.34;96737.19;7399673;19;952;-65
2024/03/09 00:36:17;;;;;;;;;;;;;;;5.14;73.07;96727.66;7399458;19;1780;-66
2024/03/09 00:38:48;;;;;;;;;;;;;;;5.16;72.64;96728.50;7399537;19;1022;-70
2024/03/09 00:41:16;;;;;;;;;;;;;;;5.17;72.84;96728.50;7399005;19;1041;-69
2024/03/09 00:43:47;;;;;;;;;;;;;;;5.21;72.15;96731.03;7398921;19;1012;-69
2024/03/09 00:46:16;;;;;;;;;;;;;;;5.20;72.39;96724.97;7399244;19;1051;-71
2024/03/09 00:48:45;;;;;;;;;;;;;;;5.22;71.77;96723.25;7399173;19;1016;-70
2024/03/09 00:51:13;;;;;;;;;;;;;;;5.24;72.05;96718.03;7396501;19;1849;-68
2024/03/09 00:53:42;;;;;;;;;;;;;;;5.25;72.41;96711.97;7399051;19;1004;-71
2024/03/09 00:56:13;;;;;;;;;;;;;;;5.25;72.76;96711.97;7398812;19;1727;-70
2024/03/09 00:58:42;;;;;;;;;;;;;;;5.22;72.49;96709.41;7398489;19;1053;-69
2024/03/09 01:01:10;;;;;;;;;;;;;;;5.22;72.97;96715.47;7398340;19;1124;-66
2024/03/09 01:03:39;;;;;;;;;;;;;;;5.23;72.51;96714.56;7397880;19;1889;-71
2024/03/09 01:06:08;;;;;;;;;;;;;;;5.21;72.69;96720.66;7398535;19;967;-69
2024/03/09 01:08:37;;;;;;;;;;;;;;;5.19;72.87;96720.69;7398167;19;1100;-71
2024/03/09 01:11:05;;;;;;;;;;;;;;;5.17;72.83;96717.25;7396008;19;1893;-72
2024/03/09 01:13:36;;;;;;;;;;;;;;;5.17;72.89;96720.72;7398402;19;1055;-74
2024/03/09 01:16:05;;;;;;;;;;;;;;;5.16;73.20;96726.78;7398294;19;953;-68
2024/03/09 01:18:33;;;;;;;;;;;;;;;5.15;73.71;96716.44;7398600;19;1736;-71
2024/03/09 01:21:02;;;;;;;;;;;;;;;5.15;73.56;96714.66;7398028;19;1051;-63
2024/03/09 01:23:31;;;;;;;;;;;;;;;5.15;73.50;96714.66;7398046;19;957;-68
2024/03/09 01:25:59;;;;;;;;;;;;;;;5.14;73.80;96712.97;7397940;19;967;-74
2024/03/09 01:28:28;;;;;;;;;;;;;;;5.13;73.76;96720.75;7397695;19;1917;-69
2024/03/09 01:31:00;;;;;;;;;;;;;;;5.15;74.14;96719.03;7396249;19;1846;-69
2024/03/09 01:33:29;;;;;;;;;;;;;;;5.16;73.96;96721.59;7397235;19;1069;-71
2024/03/09 01:35:57;;;;;;;;;;;;;;;5.16;73.98;96712.94;7398079;19;1739;-68
2024/03/09 01:38:26;;;;;;;;;;;;;;;5.15;74.11;96717.25;7397226;19;1136;-69
2024/03/09 01:40:54;;;;;;;;;;;;;;;5.13;73.57;96705.19;7397393;19;1917;-70
2024/03/09 01:43:23;;;;;;;;;;;;;;;5.06;73.62;96709.63;7397170;19;2064;-68
2024/03/09 01:45:51;;;;;;;;;;;;;;;5.04;73.39;96706.19;7396781;19;1412;-67
2024/03/09 01:48:23;;;;;;;;;;;;;;;4.95;73.69;96701.97;7397066;19;1911;-68
2024/03/09 01:50:51;;;;;;;;;;;;;;;4.89;73.84;96696.88;7394597;19;1842;-66
2024/03/09 01:53:21;;;;;;;;;;;;;;;4.88;73.78;96697.75;7396807;19;1849;-70
2024/03/09 01:55:50;;;;;;;;;;;;;;;4.90;74.06;96701.16;7396741;19;1793;-69
2024/03/09 01:58:20;;;;;;;;;;;;;;;4.92;73.97;96705.47;7396775;19;1850;-70
2024/03/09 02:00:54;;;;;;;;;;;;;;;4.90;74.51;96701.16;7396795;19;979;-67
2024/03/09 02:03:25;;;;;;;;;;;;;;;4.95;74.94;96699.38;7396361;19;1018;-71
2024/03/09 02:05:54;;;;;;;;;;;;;;;5.01;74.67;96701.03;7396073;19;1053;-67
2024/03/09 02:08:23;;;;;;;;;;;;;;;5.05;74.10;96708.75;7396219;19;923;-71
2024/03/09 02:10:52;;;;;;;;;;;;;;;5.12;73.64;96706.94;7394425;19;1861;-68
2024/03/09 02:13:21;;;;;;;;;;;;;;;5.12;73.44;96704.34;7395754;19;1005;-67
2024/03/09 02:15:49;;;;;;;;;;;;;;;5.12;73.68;96706.94;7394076;19;1100;-70
2024/03/09 02:18:20;;;;;;;;;;;;;;;5.15;74.13;96706.06;7396146;19;1954;-72
2024/03/09 02:20:52;;;;;;;;;;;;;;;5.13;74.08;96705.19;7395654;19;1097;-68
2024/03/09 02:23:21;;;;;;;;;;;;;;;5.15;73.90;96709.47;7396440;19;1374;-71
2024/03/09 02:25:53;;;;;;;;;;;;;;;5.17;74.29;96709.47;7395691;19;1831;-67
2024/03/09 02:28:22;;;;;;;;;;;;;;;5.20;73.98;96704.22;7395498;19;1057;-69
2024/03/09 02:30:51;;;;;;;;;;;;;;;5.10;74.43;96711.28;7394448;19;1875;-68
2024/03/09 02:33:20;;;;;;;;;;;;;;;5.09;74.58;96703.53;7395796;19;961;-74
2024/03/09 02:35:49;;;;;;;;;;;;;;;5.13;74.33;96705.19;7395542;19;1926;-69
2024/03/09 02:38:19;;;;;;;;;;;;;;;5.13;74.02;96700.88;7395255;19;1119;-69
2024/03/09 02:40:47;;;;;;;;;;;;;;;5.15;74.24;96696.50;7395559;19;992;-71
2024/03/09 02:43:18;;;;;;;;;;;;;;;5.16;74.45;96690.47;7395151;19;1915;-67
2024/03/09 02:45:47;;;;;;;;;;;;;;;5.17;74.14;96694.78;7394951;19;1195;-71
2024/03/09 02:48:15;;;;;;;;;;;;;;;5.22;73.86;96686.94;7394949;19;1061;-69
2024/03/09 02:50:44;;;;;;;;;;;;;;;5.25;73.99;96686.00;7394563;19;1838;-72
2024/03/09 02:53:13;;;;;;;;;;;;;;;5.23;73.76;96682.56;7395120;19;1825;-67
2024/03/09 02:55:42;;;;;;;;;;;;;;;5.05;74.14;96679.38;7395143;19;1106;-67
2024/03/09 02:58:12;;;;;;;;;;;;;;;5.04;74.38;96683.72;7395116;19;951;-69
2024/03/09 03:00:43;;;;;;;;;;;;;;;5.08;74.79;96691.47;7395052;19;1118;-65
2024/03/09 03:05:52;;;;;;;;;;;;;;;5.09;75.34;96690.56;7394476;19;802;-69
2024/03/09 03:08:21;;;;;;;;;;;;;;;5.11;75.02;96694.84;7394395;19;1459;-68
2024/03/09 03:10:50;;;;;;;;;;;;;;;5.13;75.05;96698.28;7392945;19;1850;-67
2024/03/09 03:13:18;;;;;;;;;;;;;;;5.17;75.16;96694.78;7394217;19;1101;-64
2024/03/09 03:15:49;;;;;;;;;;;;;;;5.22;75.03;96699.03;7394145;19;1204;-68
2024/03/09 03:18:19;;;;;;;;;;;;;;;5.17;74.84;96707.75;7394590;19;1052;-72
2024/03/09 03:20:47;;;;;;;;;;;;;;;5.16;75.11;96706.03;7394501;19;1003;-71
2024/03/09 03:23:16;;;;;;;;;;;;;;;5.21;75.22;96708.53;7394019;19;1029;-66
2024/03/09 03:25:45;;;;;;;;;;;;;;;5.23;75.63;96705.91;7393874;19;1002;-69
2024/03/09 03:28:13;;;;;;;;;;;;;;;5.24;75.44;96711.09;7400704;19;1880;-72
2024/03/09 03:30:42;;;;;;;;;;;;;;;5.28;75.39;96710.19;7400441;19;1822;-71
2024/03/09 03:33:13;;;;;;;;;;;;;;;5.26;75.55;96703.28;7401691;19;1052;-68
2024/03/09 03:35:41;;;;;;;;;;;;;;;5.28;75.41;96709.31;7401179;19;1112;-66
2024/03/09 03:38:10;;;;;;;;;;;;;;;5.25;75.58;96714.56;7401158;19;1100;-70
2024/03/09 03:40:38;;;;;;;;;;;;;;;5.24;75.63;96713.69;7401148;19;1010;-68
2024/03/09 03:43:07;;;;;;;;;;;;;;;5.26;75.31;96708.47;7401439;19;1813;-67
2024/03/09 03:45:36;;;;;;;;;;;;;;;5.27;75.44;96711.03;7401393;19;1927;-69
2024/03/09 03:48:05;;;;;;;;;;;;;;;5.28;75.19;96709.31;7401271;19;953;-69
2024/03/09 03:50:36;;;;;;;;;;;;;;;5.29;75.25;96700.66;7400105;19;1834;-69
2024/03/09 03:53:05;;;;;;;;;;;;;;;5.30;74.99;96699.78;7400672;19;1136;-71
2024/03/09 03:55:34;;;;;;;;;;;;;;;5.31;75.09;96699.78;7401297;19;1693;-65
2024/03/09 03:58:02;;;;;;;;;;;;;;;5.35;74.57;96702.28;7400948;19;947;-70
2024/03/09 04:00:32;;;;;;;;;;;;;;;5.36;74.66;96701.44;7400733;19;1884;-71
2024/03/09 04:03:02;;;;;;;;;;;;;;;5.34;74.75;96698.88;7400816;19;1065;-68
2024/03/09 04:05:33;;;;;;;;;;;;;;;5.36;74.76;96704.03;7400200;19;1116;-71
2024/03/09 04:08:06;;;;;;;;;;;;;;;5.39;74.38;96704.00;7400146;19;1034;-74
2024/03/09 04:10:35;;;;;;;;;;;;;;;5.40;74.17;96695.31;7398441;19;1841;-70
2024/03/09 04:13:05;;;;;;;;;;;;;;;5.41;74.13;96704.81;7400064;19;1096;-67
2024/03/09 04:15:33;;;;;;;;;;;;;;;5.37;74.11;96696.22;7399962;19;1085;-67
2024/03/09 04:18:02;;;;;;;;;;;;;;;5.35;74.26;96703.16;7400373;19;1012;-67
2024/03/09 04:20:33;;;;;;;;;;;;;;;5.33;74.31;96694.56;7399744;19;1093;-65
2024/03/09 04:23:07;;;;;;;;;;;;;;;5.35;74.39;96699.69;7400212;19;1033;-73
2024/03/09 04:25:36;;;;;;;;;;;;;;;5.33;74.06;96699.75;7400038;19;1042;-69
2024/03/09 04:28:04;;;;;;;;;;;;;;;5.30;74.77;96695.44;7399961;19;1039;-70
2024/03/09 04:30:33;;;;;;;;;;;;;;;5.33;74.57;96699.75;7399477;19;1837;-67
2024/03/09 04:33:04;;;;;;;;;;;;;;;5.34;74.39;96693.69;7399362;19;1057;-70
2024/03/09 04:35:34;;;;;;;;;;;;;;;5.34;74.30;96700.59;7399702;19;1030;-72
2024/03/09 04:38:05;;;;;;;;;;;;;;;5.36;74.57;96693.66;7398124;19;1096;-72
2024/03/09 04:40:34;;;;;;;;;;;;;;;5.38;74.31;96697.06;7398981;19;1049;-69
2024/03/09 04:43:03;;;;;;;;;;;;;;;5.39;74.51;96702.22;7399537;19;935;-70
2024/03/09 04:45:33;;;;;;;;;;;;;;;5.38;74.00;96699.66;7398890;19;994;-70
2024/03/09 04:48:04;;;;;;;;;;;;;;;5.37;74.06;96704.00;7398906;19;1096;-73
2024/03/09 04:50:33;;;;;;;;;;;;;;;5.33;74.32;96698.88;7398536;19;1857;-69
2024/03/09 04:53:05;;;;;;;;;;;;;;;5.33;74.16;96709.25;7398722;19;1112;-71
2024/03/09 04:55:36;;;;;;;;;;;;;;;5.29;74.05;96706.72;7398551;19;1216;-71
2024/03/09 04:58:13;;;;;;;;;;;;;;;5.21;73.87;96703.34;7398582;19;1103;-75
2024/03/09 05:00:42;;;;;;;;;;;;;;;5.25;74.05;96711.97;7398846;19;1023;-66
2024/03/09 05:03:12;;;;;;;;;;;;;;;5.23;74.33;96717.16;7398804;19;1025;-68
2024/03/09 05:05:41;;;;;;;;;;;;;;;5.28;74.32;96720.56;7398233;19;1057;-69
2024/03/09 05:08:10;;;;;;;;;;;;;;;5.24;73.90;96718.88;7398249;19;1135;-68
2024/03/09 05:10:41;;;;;;;;;;;;;;;5.18;74.08;96719.81;7396669;19;1834;-75
2024/03/09 05:13:10;;;;;;;;;;;;;;;5.22;74.26;96724.97;7398459;19;1034;-65
2024/03/09 05:15:38;;;;;;;;;;;;;;;5.22;74.37;96728.44;7397956;19;947;-66
2024/03/09 05:18:09;;;;;;;;;;;;;;;5.24;74.70;96725.81;7397946;19;1143;-70
2024/03/09 05:20:37;;;;;;;;;;;;;;;5.29;74.63;96729.19;7397737;19;1108;-71
2024/03/09 05:23:07;;;;;;;;;;;;;;;5.33;75.12;96728.28;7397993;19;891;-68
2024/03/09 05:25:36;;;;;;;;;;;;;;;5.33;75.21;96733.47;7397645;19;1049;-72
2024/03/09 05:28:12;;;;;;;;;;;;;;;5.36;75.26;96728.22;7397509;19;1131;-67
2024/03/09 05:30:41;;;;;;;;;;;;;;;5.41;75.36;96738.53;7397245;19;1853;-67
2024/03/09 05:33:10;;;;;;;;;;;;;;;5.46;75.42;96741.06;7397367;19;1045;-68
2024/03/09 05:35:39;;;;;;;;;;;;;;;5.47;75.43;96738.44;7397241;19;1006;-70
2024/03/09 05:38:08;;;;;;;;;;;;;;;5.41;75.25;96746.31;7397765;19;1020;-70
2024/03/09 05:40:37;;;;;;;;;;;;;;;5.35;75.86;96751.59;7397029;19;1061;-64
2024/03/09 05:43:11;;;;;;;;;;;;;;;5.29;76.02;96745.63;7397043;19;1092;-70
2024/03/09 05:45:41;;;;;;;;;;;;;;;5.34;76.57;96745.56;7396841;19;1158;-68
2024/03/09 05:48:10;;;;;;;;;;;;;;;5.42;76.34;96751.50;7396865;19;967;-68
2024/03/09 05:50:39;;;;;;;;;;;;;;;5.47;76.19;96748.84;7394213;19;1200;-70
2024/03/09 05:53:08;;;;;;;;;;;;;;;5.46;76.13;96751.44;7395169;19;1889;-68
2024/03/09 05:55:36;;;;;;;;;;;;;;;5.47;75.64;96748.84;7396600;19;1143;-74
2024/03/09 05:58:08;;;;;;;;;;;;;;;5.47;75.28;96756.63;7396850;19;1838;-66
2024/03/09 06:00:36;;;;;;;;;;;;;;;5.35;75.79;96752.47;7396581;19;1108;-68
2024/03/09 06:03:06;;;;;;;;;;;;;;;5.23;76.32;96758.66;7397149;19;1774;-70
2024/03/09 06:05:35;;;;;;;;;;;;;;;5.29;76.53;96761.19;7396210;19;1029;-71
2024/03/09 06:08:04;;;;;;;;;;;;;;;5.29;76.74;96762.91;7396253;19;1013;-68
2024/03/09 06:10:32;;;;;;;;;;;;;;;5.35;76.75;96757.66;7395209;19;1814;-68
2024/03/09 06:13:01;;;;;;;;;;;;;;;5.38;76.62;96764.53;7394340;19;1918;-71
2024/03/09 06:15:33;;;;;;;;;;;;;;;5.39;76.32;96766.25;7395885;19;1831;-68
2024/03/09 06:18:01;;;;;;;;;;;;;;;5.36;76.47;96769.72;7395893;19;1045;-68
2024/03/09 06:20:32;;;;;;;;;;;;;;;5.41;76.60;96767.94;7395747;19;1029;-73
2024/03/09 06:23:02;;;;;;;;;;;;;;;5.46;76.81;96767.88;7395868;19;1072;-68
2024/03/09 06:25:30;;;;;;;;;;;;;;;5.41;76.87;96767.06;7396069;19;1073;-70
2024/03/09 06:27:59;;;;;;;;;;;;;;;5.40;76.70;96763.66;7396102;19;1012;-70
2024/03/09 06:30:28;;;;;;;;;;;;;;;5.26;77.32;96762.94;7395559;19;1128;-70
2024/03/09 06:32:59;;;;;;;;;;;;;;;5.40;76.65;96768.84;7394430;19;1850;-65
2024/03/09 06:35:28;;;;;;;;;;;;;;;5.40;76.32;96766.25;7395476;19;1055;-71
2024/03/09 06:38:01;;;;;;;;;;;;;;;5.49;76.43;96773.03;7395404;19;1116;-69
2024/03/09 06:40:30;;;;;;;;;;;;;;;5.59;76.56;96778.06;7395253;19;1026;-65
2024/03/09 06:42:59;;;;;;;;;;;;;;;5.61;76.05;96776.31;7395237;19;1172;-71
2024/03/09 06:45:29;;;;;;;;;;;;;;;5.53;75.13;96772.09;7395100;19;1135;-69
2024/03/09 06:48:00;;;;;;;;;;;;;;;5.49;76.07;96773.03;7395425;19;1848;-67
2024/03/09 06:50:29;;;;;;;;;;;;;;;5.52;76.31;96778.19;7394935;19;1139;-68
2024/03/09 06:52:58;;;;;;;;;;;;;;;5.49;75.62;96775.63;7394056;19;1850;-70
2024/03/09 06:55:29;;;;;;;;;;;;;;;5.59;76.48;96778.94;7394795;19;1135;-66
2024/03/09 06:58:01;;;;;;;;;;;;;;;5.67;76.14;96784.03;7395281;19;1051;-67
2024/03/09 07:00:30;;;;;;;;;;;;;;;5.71;75.61;96785.69;7394658;19;1096;-70
2024/03/09 07:03:03;;;;;;;;;;;;;;;5.63;76.04;96785.78;7393726;19;1143;-69
2024/03/09 07:05:34;;;;;;;;;;;;;;;5.69;75.90;96792.66;7394563;19;1105;-73
2024/03/09 07:08:03;;;;;;;;;;;;;;;5.77;75.50;96793.41;7395009;19;1055;-68
2024/03/09 07:10:33;;;;;;;;;;;;;;;5.86;75.31;96788.94;7393542;19;1209;-69
2024/03/09 07:13:01;;;;;;;;;;;;;;;5.83;75.10;96789.84;7392953;19;1838;-71
2024/03/09 07:15:30;;;;;;;;;;;;;;;5.83;75.53;96787.25;7394795;19;1086;-66
2024/03/09 07:18:02;;;;;;;;;;;;;;;5.97;74.86;96797.44;7394633;19;1036;-69
2024/03/09 07:20:33;;;;;;;;;;;;;;;5.97;74.51;96788.78;7394121;19;1112;-73
2024/03/09 07:23:01;;;;;;;;;;;;;;;6.02;74.74;96790.41;7394596;19;1034;-70
2024/03/09 07:25:30;;;;;;;;;;;;;;;6.05;74.41;96790.41;7394535;19;1019;-71
2024/03/09 07:28:01;;;;;;;;;;;;;;;6.12;74.17;96798.09;7393895;19;1143;-71
2024/03/09 07:30:32;;;;;;;;;;;;;;;6.26;73.64;96800.47;7393814;19;1008;-66
2024/03/09 07:33:01;;;;;;;;;;;;;;;6.31;72.02;96798.66;7392320;19;1830;-68
2024/03/09 07:35:33;;;;;;;;;;;;;;;6.35;71.75;96800.31;7393684;19;1085;-70
2024/03/09 07:38:03;;;;;;;;;;;;;;;6.41;72.05;96799.38;7393683;19;1115;-69
2024/03/09 07:40:33;;;;;;;;;;;;;;;6.48;72.20;96806.16;7393513;19;1209;-67
2024/03/09 07:43:04;;;;;;;;;;;;;;;6.55;71.55;96801.72;7393390;19;1344;-67
2024/03/09 07:45:35;;;;;;;;;;;;;;;6.61;70.72;96795.53;7393399;19;1049;-69
2024/03/09 07:48:06;;;;;;;;;;;;;;;6.61;71.14;96792.94;7393444;19;1017;-70
2024/03/09 07:50:35;;;;;;;;;;;;;;;6.61;70.78;96800.75;7393285;19;1112;-64
2024/03/09 07:53:06;;;;;;;;;;;;;;;6.74;70.22;96806.59;7392213;19;1850;-67
2024/03/09 07:55:35;;;;;;;;;;;;;;;6.80;70.10;96801.25;7393145;19;1091;-70
2024/03/09 07:58:04;;;;;;;;;;;;;;;6.92;70.31;96808.84;7393239;19;1135;-67
2024/03/09 08:00:33;;;;;;;;;;;;;;;6.99;69.35;96807.00;7393234;19;1850;-67
2024/03/09 08:03:03;;;;;;;;;;;;;;;7.12;68.86;96811.94;7393342;19;1175;-67
2024/03/09 08:05:34;;;;;;;;;;;;;;;7.12;68.14;96809.34;7392802;19;1049;-72
2024/03/09 08:08:08;;;;;;;;;;;;;;;7.24;68.22;96805.63;7393259;19;946;-68
2024/03/09 08:10:39;;;;;;;;;;;;;;;7.29;66.89;96809.00;7391410;19;1276;-73
2024/03/09 08:13:10;;;;;;;;;;;;;;;7.14;68.84;96810.16;7391389;19;1834;-67
2024/03/09 08:15:39;;;;;;;;;;;;;;;7.15;66.73;96810.13;7400124;19;1017;-71
2024/03/09 08:18:08;;;;;;;;;;;;;;;7.30;67.07;96800.31;7400487;19;1899;-68
2024/03/09 08:20:39;;;;;;;;;;;;;;;7.29;66.26;96809.84;7400674;19;1656;-71
2024/03/09 08:23:08;;;;;;;;;;;;;;;7.28;65.38;96800.31;7400321;19;1025;-70
2024/03/09 08:25:38;;;;;;;;;;;;;;;7.40;65.25;96800.94;7399793;19;1034;-73
2024/03/09 08:28:08;;;;;;;;;;;;;;;7.42;65.04;96791.38;7399726;19;1179;-69
2024/03/09 08:30:36;;;;;;;;;;;;;;;7.70;64.77;96801.19;7400002;19;981;-65
2024/03/09 08:33:05;;;;;;;;;;;;;;;7.93;64.33;96805.88;7398249;19;1845;-70
2024/03/09 08:35:34;;;;;;;;;;;;;;;7.94;65.55;96801.50;7400125;19;1773;-70
2024/03/09 08:38:06;;;;;;;;;;;;;;;8.11;65.00;96797.66;7399825;19;1029;-68
2024/03/09 08:40:34;;;;;;;;;;;;;;;8.25;62.29;96805.16;7399090;19;1045;-67
2024/03/09 08:43:06;;;;;;;;;;;;;;;8.38;62.74;96798.75;7399378;19;1791;-67
2024/03/09 08:45:34;;;;;;;;;;;;;;;8.59;59.97;96802.59;7398944;19;1029;-68
2024/03/09 08:48:03;;;;;;;;;;;;;;;8.64;60.27;96802.44;7398939;19;1128;-71
2024/03/09 08:50:34;;;;;;;;;;;;;;;8.62;62.11;96795.56;7399229;19;949;-68
2024/03/09 08:53:06;;;;;;;;;;;;;;;8.33;62.24;96801.47;7397440;19;1854;-67
2024/03/09 08:55:35;;;;;;;;;;;;;;;8.34;61.88;96797.13;7398651;19;914;-65
2024/03/09 08:58:05;;;;;;;;;;;;;;;8.33;61.36;96801.47;7398636;19;1166;-70
2024/03/09 09:00:34;;;;;;;;;;;;;;;8.36;61.00;96797.91;7398507;19;1116;-68
2024/03/09 09:03:05;;;;;;;;;;;;;;;8.32;62.10;96804.97;7398419;19;1045;-67
2024/03/09 09:05:34;;;;;;;;;;;;;;;7.97;60.74;96806.66;7398274;19;1278;-67
2024/03/09 09:08:03;;;;;;;;;;;;;;;7.89;61.50;96798.19;7398464;19;1834;-68
2024/03/09 09:10:35;;;;;;;;;;;;;;;7.84;62.43;96798.28;7396698;19;1118;-67
2024/03/09 09:13:03;;;;;;;;;;;;;;;7.81;62.97;96798.34;7396918;19;1838;-70
2024/03/09 09:15:33;;;;;;;;;;;;;;;7.89;62.16;96798.19;7397992;19;933;-68
2024/03/09 09:18:02;;;;;;;;;;;;;;;7.97;62.58;96791.88;7397901;19;1131;-67
2024/03/09 09:20:31;;;;;;;;;;;;;;;7.84;62.14;96791.31;7397844;19;1014;-66
2024/03/09 09:23:00;;;;;;;;;;;;;;;7.76;61.86;96795.84;7397774;19;1085;-69
2024/03/09 09:25:29;;;;;;;;;;;;;;;7.62;60.72;96796.16;7397716;19;1048;-69
2024/03/09 09:28:01;;;;;;;;;;;;;;;7.87;62.46;96790.41;7397618;19;1057;-69
2024/03/09 09:30:29;;;;;;;;;;;;;;;8.09;62.53;96793.34;7397508;19;1030;-67
2024/03/09 09:32:58;;;;;;;;;;;;;;;8.16;58.65;96799.25;7397031;19;1841;-67
2024/03/09 09:35:26;;;;;;;;;;;;;;;8.27;58.85;96795.53;7397723;19;1833;-69
2024/03/09 09:37:57;;;;;;;;;;;;;;;8.38;61.02;96803.09;7397615;19;1794;-68
2024/03/09 09:40:26;;;;;;;;;;;;;;;8.39;60.51;96797.84;7397228;19;1136;-70
2024/03/09 09:42:55;;;;;;;;;;;;;;;8.40;59.25;96799.53;7397513;19;1829;-71
2024/03/09 09:45:29;;;;;;;;;;;;;;;8.45;60.54;96805.50;7396959;19;1112;-68
2024/03/09 09:47:59;;;;;;;;;;;;;;;8.46;58.57;96803.78;7396927;19;1044;-68
2024/03/09 09:50:34;;;;;;;;;;;;;;;8.37;57.55;96804.00;7396827;19;1116;-71
2024/03/09 09:53:03;;;;;;;;;;;;;;;8.54;58.13;96804.44;7396340;19;1850;-68
2024/03/09 09:55:31;;;;;;;;;;;;;;;8.42;58.95;96804.72;7396646;19;1045;-67
2024/03/09 09:58:01;;;;;;;;;;;;;;;8.41;58.94;96805.63;7396503;19;1048;-68
2024/03/09 10:00:32;;;;;;;;;;;;;;;8.40;58.83;96809.13;7396428;19;1581;-70
2024/03/09 10:03:01;;;;;;;;;;;;;;;8.54;58.72;96806.19;7396479;19;943;-70
2024/03/09 10:05:31;;;;;;;;;;;;;;;8.59;57.96;96809.53;7396366;19;1033;-70
2024/03/09 10:08:01;;;;;;;;;;;;;;;8.46;57.21;96804.59;7396285;19;1084;-70
2024/03/09 10:10:30;;;;;;;;;;;;;;;8.30;60.40;96798.94;7395327;19;1309;-71
2024/03/09 10:13:12;;;;;;;;;;;;;;;8.14;61.44;96797.59;7395425;19;1846;-71
2024/03/09 10:15:44;;;;;;;;;;;;;;;7.94;62.35;96794.56;7396091;19;1838;-69
2024/03/09 10:18:15;;;;;;;;;;;;;;;7.70;64.24;96793.38;7395944;19;970;-67
2024/03/09 10:20:44;;;;;;;;;;;;;;;7.62;63.82;96792.69;7395790;19;1017;-71
2024/03/09 10:23:13;;;;;;;;;;;;;;;7.63;64.02;96791.78;7396080;19;1902;-70
2024/03/09 10:25:42;;;;;;;;;;;;;;;7.77;62.94;96796.72;7395684;19;1101;-71
2024/03/09 10:28:13;;;;;;;;;;;;;;;7.86;63.40;96793.03;7395623;19;1123;-64
2024/03/09 10:30:45;;;;;;;;;;;;;;;7.80;63.22;96801.84;7395871;19;984;-68
2024/03/09 10:33:15;;;;;;;;;;;;;;;7.76;63.26;96795.84;7394711;19;1857;-70
2024/03/09 10:35:46;;;;;;;;;;;;;;;7.87;64.07;96787.78;7394984;19;1146;-66
2024/03/09 10:38:15;;;;;;;;;;;;;;;8.01;63.34;96789.22;7394387;19;1099;-73
2024/03/09 10:40:44;;;;;;;;;;;;;;;8.10;62.76;96781.19;7395540;19;2014;-67
2024/03/09 10:43:17;;;;;;;;;;;;;;;8.05;62.31;96786.50;7395676;19;1040;-70
2024/03/09 10:45:51;;;;;;;;;;;;;;;8.21;61.92;96791.31;7395005;19;1042;-67
2024/03/09 10:48:23;;;;;;;;;;;;;;;8.27;62.09;96790.31;7394984;19;911;-68
2024/03/09 10:50:57;;;;;;;;;;;;;;;8.40;61.31;96785.66;7393684;19;933;-71
2024/03/09 10:53:35;;;;;;;;;;;;;;;8.44;60.77;96788.16;7394203;19;1857;-70
2024/03/09 10:56:06;;;;;;;;;;;;;;;8.57;60.13;96787.84;7394800;19;1258;-66
2024/03/09 10:58:35;;;;;;;;;;;;;;;8.54;59.27;96785.31;7394756;19;1096;-67
2024/03/09 11:01:08;;;;;;;;;;;;;;;8.66;58.93;96789.38;7394624;19;1108;-67
2024/03/09 11:03:37;;;;;;;;;;;;;;;8.70;58.71;96783.19;7395073;19;1004;-67
2024/03/09 11:06:10;;;;;;;;;;;;;;;8.84;58.26;96782.81;7394442;19;1057;-66
2024/03/09 11:08:39;;;;;;;;;;;;;;;9.07;58.29;96782.19;7394478;19;1041;-72
2024/03/09 11:11:08;;;;;;;;;;;;;;;9.38;57.08;96785.66;7392765;19;1050;-66
2024/03/09 11:13:37;;;;;;;;;;;;;;;9.57;55.68;96778.13;7393461;19;1864;-69
2024/03/09 11:16:09;;;;;;;;;;;;;;;9.37;57.39;96772.66;7394210;19;1009;-67
2024/03/09 11:18:40;;;;;;;;;;;;;;;9.51;56.97;96767.03;7394663;19;1034;-68
2024/03/09 11:21:11;;;;;;;;;;;;;;;9.29;58.47;96765.91;7393992;19;1212;-66
2024/03/09 11:23:40;;;;;;;;;;;;;;;9.28;57.44;96766.81;7394046;19;1087;-67
2024/03/09 11:26:10;;;;;;;;;;;;;;;9.33;58.25;96767.50;7393931;19;1117;-71
2024/03/09 11:28:52;;;;;;;;;;;;;;;9.45;58.25;96762.84;7393932;19;1095;-69
2024/03/09 11:31:28;;;;;;;;;;;;;;;9.39;57.23;96763.03;7393800;19;1143;-64
2024/03/09 11:33:58;;;;;;;;;;;;;;;9.19;58.77;96762.72;7392700;19;1861;-70
2024/03/09 11:36:42;;;;;;;;;;;;;;;9.19;56.90;96767.94;7394199;19;1016;-66
2024/03/09 11:39:11;;;;;;;;;;;;;;;9.32;56.07;96755.38;7394061;19;1542;-72
2024/03/09 11:41:45;;;;;;;;;;;;;;;9.45;55.76;96750.63;7393552;19;1038;-65
2024/03/09 11:44:14;;;;;;;;;;;;;;;9.54;57.53;96754.72;7393561;19;1053;-66
2024/03/09 11:46:45;;;;;;;;;;;;;;;9.42;57.68;96752.50;7393448;19;1080;-70
2024/03/09 11:49:14;;;;;;;;;;;;;;;9.56;56.99;96752.94;7396625;19;1029;-68
2024/03/09 11:51:43;;;;;;;;;;;;;;;9.61;57.37;96753.63;7401321;19;1026;-73
2024/03/09 11:54:13;;;;;;;;;;;;;;;9.68;56.58;96754.31;7399079;19;1847;-67
2024/03/09 11:56:43;;;;;;;;;;;;;;;9.70;56.36;96752.47;7400695;19;1025;-74
2024/03/09 11:59:12;;;;;;;;;;;;;;;9.92;55.85;96749.22;7400591;19;1068;-71
2024/03/09 12:01:42;;;;;;;;;;;;;;;9.97;54.88;96746.44;7400469;19;1119;-69
2024/03/09 12:04:13;;;;;;;;;;;;;;;9.98;54.82;96753.38;7400970;19;1021;-71
2024/03/09 12:06:43;;;;;;;;;;;;;;;9.94;56.41;96749.16;7400358;19;1937;-68
2024/03/09 12:09:13;;;;;;;;;;;;;;;9.90;57.10;96743.16;7400291;19;998;-66
2024/03/09 12:11:45;;;;;;;;;;;;;;;9.85;57.11;96740.69;7397380;19;1109;-64
2024/03/09 12:14:14;;;;;;;;;;;;;;;9.83;56.81;96729.47;7398987;19;1849;-66
2024/03/09 12:16:44;;;;;;;;;;;;;;;10.01;57.84;96734.97;7400382;19;1808;-70
2024/03/09 12:19:15;;;;;;;;;;;;;;;10.12;56.54;96732.03;7399869;19;1137;-70
2024/03/09 12:21:44;;;;;;;;;;;;;;;10.33;56.47;96734.81;7399760;19;1123;-67
2024/03/09 12:24:14;;;;;;;;;;;;;;;10.22;55.94;96732.56;7400275;19;1047;-70
2024/03/09 12:26:43;;;;;;;;;;;;;;;10.03;56.34;96729.72;7400106;19;1826;-67
2024/03/09 12:29:13;;;;;;;;;;;;;;;10.26;55.97;96730.72;7399914;19;1900;-69
2024/03/09 12:31:42;;;;;;;;;;;;;;;10.34;56.45;96723.44;7399872;19;1804;-69
2024/03/09 12:34:11;;;;;;;;;;;;;;;10.23;55.30;96724.66;7398158;19;1855;-70
2024/03/09 12:36:51;;;;;;;;;;;;;;;9.99;56.07;96723.72;7399280;19;1076;-65
2024/03/09 12:39:20;;;;;;;;;;;;;;;9.76;56.69;96717.50;7399232;19;1092;-66
2024/03/09 12:41:53;;;;;;;;;;;;;;;9.83;56.49;96715.53;7399189;19;1049;-68
2024/03/09 12:44:23;;;;;;;;;;;;;;;9.95;56.76;96722.13;7399145;19;1041;-70
2024/03/09 12:46:51;;;;;;;;;;;;;;;10.24;56.16;96717.69;7399002;19;1116;-68
2024/03/09 12:49:21;;;;;;;;;;;;;;;10.50;54.71;96715.94;7398943;19;1022;-68
2024/03/09 12:51:53;;;;;;;;;;;;;;;10.68;54.99;96718.81;7398826;19;1147;-72
2024/03/09 12:54:23;;;;;;;;;;;;;;;10.67;54.51;96717.13;7397413;19;1853;-70
2024/03/09 12:56:54;;;;;;;;;;;;;;;10.48;54.38;96715.16;7398682;19;986;-71
2024/03/09 12:59:26;;;;;;;;;;;;;;;10.33;53.89;96714.75;7397509;19;1227;-71
2024/03/09 13:01:55;;;;;;;;;;;;;;;10.36;53.70;96712.03;7398510;19;1045;-67
2024/03/09 13:04:25;;;;;;;;;;;;;;;10.45;56.13;96713.50;7398423;19;1105;-70
2024/03/09 13:06:56;;;;;;;;;;;;;;;10.58;54.25;96716.56;7398926;19;1041;-73
2024/03/09 13:09:30;;;;;;;;;;;;;;;10.62;53.21;96706.81;7398529;19;1182;-74
2024/03/09 13:11:59;;;;;;;;;;;;;;;10.51;54.17;96702.00;7398198;19;1069;-74
2024/03/09 13:14:25;;;;;;;;;;;;;;;10.51;53.17;96704.59;7396872;19;1847;-68
2024/03/09 13:16:54;;;;;;;;;;;;;;;10.66;54.16;96699.72;7397961;19;1045;-72
2024/03/09 13:19:23;;;;;;;;;;;;;;;10.73;53.90;96695.97;7398032;19;1038;-72
2024/03/09 13:21:52;;;;;;;;;;;;;;;10.85;51.77;96702.53;7398378;19;1028;-71
2024/03/09 13:24:24;;;;;;;;;;;;;;;10.87;51.97;96706.78;7397836;19;1131;-71